createdAt,value
2022-08-17T00:01:52.277Z,99128.00
2022-08-17T00:04:20.720Z,99133.91
2022-08-17T00:06:48.825Z,99125.53
2022-08-17T00:09:18.340Z,99127.91
2022-08-17T00:12:41.309Z,99121.56
2022-08-17T00:14:35.148Z,99130.66
2022-08-17T00:17:04.590Z,99134.16
2022-08-17T00:19:32.938Z,99126.47
2022-08-17T00:22:34.399Z,99132.37
2022-08-17T00:24:48.377Z,99128.28
2022-08-17T00:27:15.743Z,99133.47
2022-08-17T00:29:45.453Z,99140.34
2022-08-17T00:33:15.410Z,99134.09
2022-08-17T00:35:04.913Z,99142.91
2022-08-17T00:37:32.659Z,99141.66
2022-08-17T00:40:00.085Z,99140.59
2022-08-17T00:42:31.074Z,99131.84
2022-08-17T00:44:59.160Z,99140.66
2022-08-17T00:47:26.618Z,99131.31
2022-08-17T00:49:54.162Z,99133.69
2022-08-17T00:52:23.107Z,99137.41
2022-08-17T00:54:52.335Z,99143.44
2022-08-17T00:57:29.001Z,99141.53
2022-08-17T01:00:02.743Z,99134.56
2022-08-17T01:02:34.218Z,99142.06
2022-08-17T01:05:02.877Z,99151.06
2022-08-17T01:07:30.287Z,99141.78
2022-08-17T01:09:57.645Z,99143.44
2022-08-17T01:12:25.279Z,99151.34
2022-08-17T01:14:52.657Z,99152.41
2022-08-17T01:17:20.837Z,99152.38
2022-08-17T01:19:48.452Z,99153.66
2022-08-17T01:22:23.447Z,99166.81
2022-08-17T01:24:53.656Z,99159.66
2022-08-17T01:27:21.192Z,99158.91
2022-08-17T01:29:52.208Z,99152.12
2022-08-17T01:32:19.969Z,99160.53
2022-08-17T01:34:50.680Z,99161.91
2022-08-17T01:37:19.364Z,99164.94
2022-08-17T01:39:56.105Z,99156.78
2022-08-17T01:42:40.407Z,99160.22
2022-08-17T01:45:14.176Z,99163.00
2022-08-17T01:47:41.740Z,99165.44
2022-08-17T01:50:11.387Z,99168.75
2022-08-17T01:52:38.959Z,99167.75
2022-08-17T01:55:06.600Z,99170.72
2022-08-17T01:57:34.447Z,99173.38
2022-08-17T02:00:02.026Z,99167.16
2022-08-17T02:02:38.521Z,99163.63
2022-08-17T02:05:06.749Z,99165.53
2022-08-17T02:07:59.919Z,99165.84
2022-08-17T02:10:24.290Z,99165.56
2022-08-17T02:13:02.394Z,99161.72
2022-08-17T02:15:30.145Z,99159.53
2022-08-17T02:17:57.590Z,99154.41
2022-08-17T02:20:41.620Z,99154.37
2022-08-17T02:23:11.899Z,99153.66
2022-08-17T02:25:39.316Z,99153.28
2022-08-17T02:28:06.702Z,99151.66
2022-08-17T02:31:00.719Z,99156.28
2022-08-17T02:33:22.103Z,99154.97
2022-08-17T02:35:49.809Z,99154.19
2022-08-17T02:38:17.431Z,99157.72
2022-08-17T02:40:44.989Z,99159.34
2022-08-17T02:43:13.750Z,99160.41
2022-08-17T02:45:41.132Z,99157.16
2022-08-17T02:48:08.482Z,99152.28
2022-08-17T02:50:36.191Z,99157.13
2022-08-17T02:53:04.782Z,99150.56
2022-08-17T02:55:38.125Z,99153.34
2022-08-17T02:58:06.144Z,99153.88
2022-08-17T03:00:35.491Z,99155.78
2022-08-17T03:03:04.429Z,99156.28
2022-08-17T03:05:33.432Z,99160.41
2022-08-17T03:08:00.807Z,99166.94
2022-08-17T03:10:29.698Z,99165.03
2022-08-17T03:12:57.346Z,99167.97
2022-08-17T03:15:26.581Z,99165.81
2022-08-17T03:17:54.625Z,99165.25
2022-08-17T03:20:22.365Z,99164.47
2022-08-17T03:22:53.240Z,99165.28
2022-08-17T03:25:27.161Z,99165.81
2022-08-17T03:27:55.043Z,99168.00
2022-08-17T03:30:22.684Z,99171.19
2022-08-17T03:32:51.502Z,99157.69
2022-08-17T03:35:20.915Z,99165.31
2022-08-17T03:37:48.355Z,99164.75
2022-08-17T03:40:34.585Z,99162.87
2022-08-17T03:43:15.500Z,99166.41
2022-08-17T03:46:02.198Z,99166.91
2022-08-17T03:48:48.285Z,99174.50
2022-08-17T03:51:41.931Z,99173.66
2022-08-17T03:54:28.327Z,99176.13
2022-08-17T03:56:59.093Z,99179.38
2022-08-17T03:59:26.549Z,99174.75
2022-08-17T04:01:54.576Z,99178.34
2022-08-17T04:04:27.764Z,99185.91
2022-08-17T04:06:55.525Z,99182.09
2022-08-17T04:09:23.190Z,99180.72
2022-08-17T04:11:50.549Z,99190.22
2022-08-17T04:14:17.925Z,99186.97
2022-08-17T04:16:45.570Z,99184.03
2022-08-17T04:19:12.981Z,99188.06
2022-08-17T04:21:40.498Z,99189.69
2022-08-17T04:24:08.138Z,99188.38
2022-08-17T04:26:52.547Z,99189.44
2022-08-17T04:29:21.384Z,99194.34
2022-08-17T04:31:48.769Z,99200.03
2022-08-17T04:34:19.675Z,99201.41
2022-08-17T04:36:50.379Z,99200.31
2022-08-17T04:39:18.003Z,99197.03
2022-08-17T04:42:04.320Z,99204.88
2022-08-17T04:44:37.835Z,99196.50
2022-08-17T04:47:07.160Z,99205.69
2022-08-17T04:49:38.479Z,99197.78
2022-08-17T04:52:05.856Z,99201.56
2022-08-17T04:54:33.862Z,99203.47
2022-08-17T04:57:01.570Z,99202.38
2022-08-17T04:59:28.953Z,99206.47
2022-08-17T05:01:56.344Z,99205.91
2022-08-17T05:04:33.779Z,99214.19
2022-08-17T05:07:04.236Z,99201.34
2022-08-17T05:09:31.883Z,99210.50
2022-08-17T05:12:02.576Z,99218.56
2022-08-17T05:14:32.335Z,99216.94
2022-08-17T05:17:01.844Z,99212.00
2022-08-17T05:19:34.745Z,99218.38
2022-08-17T05:22:05.766Z,99218.50
2022-08-17T05:24:39.074Z,99214.91
2022-08-17T05:27:15.897Z,99211.25
2022-08-17T05:29:46.599Z,99211.97
2022-08-17T05:32:39.480Z,99216.06
2022-08-17T05:35:01.672Z,99208.41
2022-08-17T05:37:29.319Z,99205.09
2022-08-17T05:39:56.739Z,99209.09
2022-08-17T05:42:24.238Z,99218.03
2022-08-17T05:44:52.641Z,99208.22
2022-08-17T05:47:20.098Z,99212.12
2022-08-17T05:49:49.199Z,99206.94
2022-08-17T05:52:44.695Z,99214.72
2022-08-17T05:55:23.802Z,99212.16
2022-08-17T05:57:56.119Z,99211.34
2022-08-17T06:01:04.181Z,99215.28
2022-08-17T06:03:34.414Z,99213.84
2022-08-17T06:06:32.395Z,99205.12
2022-08-17T06:09:33.949Z,99211.91
2022-08-17T06:12:19.788Z,99209.56
2022-08-17T06:15:10.683Z,99204.22
2022-08-17T06:17:38.202Z,99194.72
2022-08-17T06:20:09.633Z,99207.00
2022-08-17T06:22:40.260Z,99202.47
2022-08-17T06:25:13.903Z,99199.94
2022-08-17T06:27:53.530Z,99193.69
2022-08-17T06:30:24.706Z,99197.47
2022-08-17T06:32:53.312Z,99193.37
2022-08-17T06:35:35.669Z,99196.13
2022-08-17T06:38:35.001Z,99187.72
2022-08-17T06:41:25.237Z,99189.91
2022-08-17T06:44:10.046Z,99187.44
2022-08-17T06:46:40.181Z,99187.19
2022-08-17T06:49:44.950Z,99195.34
2022-08-17T06:52:42.120Z,99197.75
2022-08-17T06:55:17.749Z,99198.91
2022-08-17T06:57:50.215Z,99191.91
2022-08-17T07:00:23.192Z,99180.16
2022-08-17T07:03:12.754Z,99179.38
2022-08-17T07:05:46.261Z,99172.91
2022-08-17T07:08:20.316Z,99181.25
2022-08-17T07:10:55.741Z,99171.97
2022-08-17T07:13:57.444Z,99159.59
2022-08-17T07:16:33.252Z,99167.97
2022-08-17T07:19:00.666Z,99158.09
2022-08-17T07:21:42.193Z,99181.38
2022-08-17T07:24:45.144Z,99173.47
2022-08-17T07:27:21.217Z,99167.31
2022-08-17T07:29:49.460Z,99151.75
2022-08-17T07:32:21.121Z,99149.88
2022-08-17T07:35:15.344Z,99152.88
2022-08-17T07:37:46.292Z,99158.34
2022-08-17T07:40:26.505Z,99155.37
2022-08-17T07:43:35.874Z,99152.59
2022-08-17T07:46:40.271Z,99156.00
2022-08-17T07:49:11.199Z,99150.91
2022-08-17T07:51:42.537Z,99163.53
2022-08-17T07:54:16.075Z,99151.28
2022-08-17T07:56:46.027Z,99146.72
2022-08-17T07:59:23.407Z,99152.81
2022-08-17T08:01:55.530Z,99156.19
2022-08-17T08:04:58.900Z,99166.09
2022-08-17T08:07:18.885Z,99178.16
2022-08-17T08:10:06.507Z,99172.91
2022-08-17T08:12:46.921Z,99180.03
2022-08-17T08:15:18.976Z,99176.38
2022-08-17T08:17:51.898Z,99172.41
2022-08-17T08:20:52.200Z,99157.56
2022-08-17T08:23:33.357Z,99158.19
2022-08-17T08:26:39.367Z,99151.81
2022-08-17T08:29:28.227Z,99186.50
2022-08-17T08:32:11.790Z,99179.06
2022-08-17T08:35:03.730Z,99171.78
2022-08-17T08:38:00.909Z,99167.03
2022-08-17T08:40:43.407Z,99172.28
2022-08-17T08:43:29.674Z,99176.34
2022-08-17T08:46:14.890Z,99164.81
2022-08-17T08:49:12.377Z,99158.53
2022-08-17T08:51:52.997Z,99178.34
2022-08-17T08:54:33.375Z,99163.88
2022-08-17T08:57:32.850Z,99170.84
2022-08-17T09:00:14.831Z,99166.78
2022-08-17T09:03:04.050Z,99160.22
2022-08-17T09:06:03.733Z,99160.03
2022-08-17T09:08:52.880Z,99154.69
2022-08-17T09:12:02.521Z,99179.78
2022-08-17T09:14:46.834Z,99183.38
2022-08-17T09:17:18.647Z,99183.31
2022-08-17T09:20:28.237Z,99163.31
2022-08-17T09:23:08.818Z,99170.50
2022-08-17T09:25:49.711Z,99174.16
2022-08-17T09:28:20.263Z,99187.69
2022-08-17T09:30:50.152Z,99183.97
2022-08-17T09:33:22.808Z,99170.09
2022-08-17T09:36:04.809Z,99179.41
2022-08-17T09:38:54.619Z,99164.31
2022-08-17T09:41:26.413Z,99170.06
2022-08-17T09:43:54.809Z,99176.00
2022-08-17T09:46:25.390Z,99166.09
2022-08-17T09:49:07.559Z,99150.06
2022-08-17T09:51:36.126Z,99160.84
2022-08-17T09:54:34.883Z,99162.25
2022-08-17T09:57:27.978Z,99155.37
2022-08-17T10:00:09.860Z,99164.75
2022-08-17T10:03:04.518Z,99158.16
2022-08-17T10:05:43.192Z,99148.81
2022-08-17T10:08:27.790Z,99156.50
2022-08-17T10:11:33.518Z,99149.66
2022-08-17T10:14:36.914Z,99146.16
2022-08-17T10:17:13.647Z,99166.06
2022-08-17T10:19:55.237Z,99162.19
2022-08-17T10:22:53.358Z,99156.53
2022-08-17T10:25:56.471Z,99157.13
2022-08-17T10:28:29.744Z,99141.78
2022-08-17T10:31:23.432Z,99164.09
2022-08-17T10:33:50.937Z,99148.19
2022-08-17T10:36:26.719Z,99144.19
2022-08-17T10:39:10.931Z,99138.44
2022-08-17T10:41:46.796Z,99148.53
2022-08-17T10:44:39.780Z,99155.37
2022-08-17T10:47:09.346Z,99183.91
2022-08-17T10:49:53.813Z,99198.91
2022-08-17T10:52:26.016Z,99191.31
2022-08-17T10:54:58.558Z,99187.03
2022-08-17T10:57:31.985Z,99178.41
2022-08-17T11:00:00.789Z,99170.50
2022-08-17T11:02:50.080Z,99179.69
2022-08-17T11:05:22.232Z,99176.97
2022-08-17T11:08:17.891Z,99175.59
2022-08-17T11:11:07.234Z,99173.56
2022-08-17T11:13:53.148Z,99171.78
2022-08-17T11:16:39.630Z,99194.94
2022-08-17T11:19:41.593Z,99185.97
2022-08-17T11:22:33.348Z,99182.91
2022-08-17T11:25:16.156Z,99181.47
2022-08-17T11:27:44.436Z,99172.19
2022-08-17T11:30:14.206Z,99173.78
2022-08-17T11:32:48.010Z,99169.78
2022-08-17T11:35:20.516Z,99172.94
2022-08-17T11:38:18.513Z,99179.41
2022-08-17T11:40:58.970Z,99161.66
2022-08-17T11:43:45.681Z,99176.03
2022-08-17T11:46:22.990Z,99169.53
2022-08-17T11:49:12.044Z,99167.22
2022-08-17T11:52:01.578Z,99160.56
2022-08-17T11:54:36.152Z,99165.13
2022-08-17T11:57:42.072Z,99161.81
2022-08-17T12:00:39.753Z,99145.75
2022-08-17T12:03:31.717Z,99140.63
2022-08-17T12:06:13.449Z,99138.97
2022-08-17T12:08:43.419Z,99131.41
2022-08-17T12:11:12.210Z,99146.38
2022-08-17T12:13:46.794Z,99147.44
2022-08-17T12:16:18.427Z,99146.63
2022-08-17T12:18:53.497Z,99149.56
2022-08-17T12:21:35.973Z,99142.81
2022-08-17T12:24:16.005Z,99136.53
2022-08-17T12:26:45.192Z,99138.38
2022-08-17T12:29:18.276Z,99123.47
2022-08-17T12:32:03.801Z,99129.41
2022-08-17T12:34:36.083Z,99129.25
2022-08-17T12:37:12.865Z,99130.94
2022-08-17T12:39:40.256Z,99134.53
2022-08-17T12:42:29.334Z,99116.31
2022-08-17T12:44:56.983Z,99123.69
2022-08-17T12:47:24.661Z,99118.06
2022-08-17T12:50:08.188Z,99120.56
2022-08-17T12:53:01.145Z,99119.09
2022-08-17T12:55:32.479Z,99107.16
2022-08-17T12:58:01.764Z,99117.47
2022-08-17T13:00:34.291Z,99123.69
2022-08-17T13:03:07.691Z,99128.53
2022-08-17T13:05:43.541Z,99121.97
2022-08-17T13:08:16.277Z,99122.53
2022-08-17T13:10:43.916Z,99117.59
2022-08-17T13:13:26.346Z,99115.19
2022-08-17T13:16:09.510Z,99111.00
2022-08-17T13:18:40.072Z,99112.94
2022-08-17T13:21:23.605Z,99119.00
2022-08-17T13:23:58.033Z,99110.94
2022-08-17T13:26:30.669Z,99118.00
2022-08-17T13:28:58.398Z,99109.19
2022-08-17T13:31:27.880Z,99107.38
2022-08-17T13:34:26.958Z,99105.44
2022-08-17T13:37:27.072Z,99101.06
2022-08-17T13:40:10.987Z,99099.09
2022-08-17T13:42:53.334Z,99102.53
2022-08-17T13:45:35.722Z,99104.59
2022-08-17T13:48:16.949Z,99109.25
2022-08-17T13:50:49.598Z,99108.97
2022-08-17T13:53:40.234Z,99096.13
2022-08-17T13:56:37.234Z,99097.88
2022-08-17T13:59:01.489Z,99112.44
2022-08-17T14:01:41.430Z,99104.50
2022-08-17T14:04:19.497Z,99104.44
2022-08-17T14:06:51.740Z,99097.34
2022-08-17T14:09:24.270Z,99107.75
2022-08-17T14:11:51.794Z,99097.19
2022-08-17T14:14:19.181Z,99092.47
2022-08-17T14:16:46.810Z,99091.69
2022-08-17T14:19:14.333Z,99090.69
2022-08-17T14:21:42.991Z,99089.19
2022-08-17T14:24:30.517Z,99081.28
2022-08-17T14:26:58.489Z,99089.88
2022-08-17T14:29:27.971Z,99099.25
2022-08-17T14:31:55.808Z,99089.84
2022-08-17T14:34:23.834Z,99083.41
2022-08-17T14:36:51.851Z,99090.34
2022-08-17T14:39:19.274Z,99080.25
2022-08-17T14:41:46.627Z,99092.66
2022-08-17T14:44:14.408Z,99096.81
2022-08-17T14:46:43.188Z,99086.44
2022-08-17T14:49:11.352Z,99085.78
2022-08-17T14:51:44.226Z,99078.53
2022-08-17T14:54:32.791Z,99075.22
2022-08-17T14:57:11.552Z,99084.06
2022-08-17T14:59:54.550Z,99086.09
2022-08-17T15:02:30.140Z,99077.63
2022-08-17T15:05:00.014Z,99075.62
2022-08-17T15:07:30.946Z,99076.66
2022-08-17T15:10:02.146Z,99075.59
2022-08-17T15:12:33.295Z,99079.25
2022-08-17T15:15:05.123Z,99081.75
2022-08-17T15:17:43.811Z,99067.94
2022-08-17T15:20:17.616Z,99074.50
2022-08-17T15:22:45.692Z,99084.13
2022-08-17T15:25:13.118Z,99085.72
2022-08-17T15:27:40.600Z,99086.66
2022-08-17T15:30:08.861Z,99083.38
2022-08-17T15:32:38.200Z,99087.53
2022-08-17T15:35:06.240Z,99076.75
2022-08-17T15:37:33.887Z,99077.91
2022-08-17T15:40:01.413Z,99074.94
2022-08-17T15:42:29.373Z,99072.78
2022-08-17T15:44:57.054Z,99082.25
2022-08-17T15:47:24.446Z,99081.31
2022-08-17T15:49:55.448Z,99087.97
2022-08-17T15:52:27.313Z,99088.53
2022-08-17T15:54:56.280Z,99080.66
2022-08-17T15:57:24.588Z,99086.66
2022-08-17T15:59:58.519Z,99092.38
2022-08-17T16:03:13.738Z,99092.59
2022-08-17T16:05:19.896Z,99088.88
2022-08-17T16:07:48.316Z,99092.66
2022-08-17T16:10:19.006Z,99085.53
2022-08-17T16:12:47.930Z,99076.81
2022-08-17T16:15:16.259Z,99084.16
2022-08-17T16:17:43.663Z,99086.66
2022-08-17T16:20:20.482Z,99083.44
2022-08-17T16:22:49.528Z,99085.25
2022-08-17T16:25:20.212Z,99073.41
2022-08-17T16:27:49.246Z,99086.56
2022-08-17T16:30:17.842Z,99087.31
2022-08-17T16:32:45.439Z,99082.66
2022-08-17T16:35:17.268Z,99079.25
2022-08-17T16:37:45.648Z,99078.81
2022-08-17T16:40:14.731Z,99077.69
2022-08-17T16:42:43.387Z,99082.91
2022-08-17T16:45:13.087Z,99076.88
2022-08-17T16:47:41.150Z,99072.28
2022-08-17T16:50:10.008Z,99075.69
2022-08-17T16:52:38.181Z,99078.97
2022-08-17T16:55:06.864Z,99080.28
2022-08-17T16:57:34.996Z,99075.28
2022-08-17T17:00:02.874Z,99077.84
2022-08-17T17:02:32.166Z,99086.94
2022-08-17T17:05:42.851Z,99088.34
2022-08-17T17:08:12.806Z,99087.94
2022-08-17T17:10:46.019Z,99090.56
2022-08-17T17:13:29.119Z,99080.56
2022-08-17T17:16:06.636Z,99087.03
2022-08-17T17:18:50.963Z,99082.28
2022-08-17T17:21:19.305Z,99085.09
2022-08-17T17:23:54.297Z,99096.81
2022-08-17T17:26:28.482Z,99094.69
2022-08-17T17:28:56.069Z,99104.28
2022-08-17T17:31:23.861Z,99105.66
2022-08-17T17:34:03.778Z,99108.56
2022-08-17T17:36:42.966Z,99106.97
2022-08-17T17:39:17.299Z,99103.59
2022-08-17T17:42:07.742Z,99115.97
2022-08-17T17:44:38.393Z,99119.34
2022-08-17T17:47:06.240Z,99117.16
2022-08-17T17:49:38.612Z,99123.78
2022-08-17T17:52:26.589Z,99124.66
2022-08-17T17:55:15.681Z,99128.12
2022-08-17T17:58:07.541Z,99136.06
2022-08-17T18:00:54.890Z,99129.16
2022-08-17T18:03:50.472Z,99132.13
2022-08-17T18:06:45.487Z,99135.16
2022-08-17T18:10:01.403Z,99138.56
2022-08-17T18:12:49.327Z,99140.56
2022-08-17T18:15:16.973Z,99146.50
2022-08-17T18:18:15.978Z,99159.41
2022-08-17T18:20:53.714Z,99159.56
2022-08-17T18:23:28.018Z,99163.25
2022-08-17T18:25:56.289Z,99169.06
2022-08-17T18:28:35.753Z,99172.88
2022-08-17T18:31:15.274Z,99170.94
2022-08-17T18:33:47.409Z,99174.41
2022-08-17T18:36:36.359Z,99171.19
2022-08-17T18:39:10.981Z,99170.91
2022-08-17T18:41:46.799Z,99174.84
2022-08-17T18:44:20.410Z,99180.66
2022-08-17T18:46:47.996Z,99175.88
2022-08-17T18:49:26.395Z,99185.16
2022-08-17T18:52:11.995Z,99181.00
2022-08-17T18:54:39.292Z,99186.06
2022-08-17T18:57:07.069Z,99187.88
2022-08-17T18:59:40.030Z,99192.91
2022-08-17T19:02:21.627Z,99198.91
2022-08-17T19:05:06.907Z,99193.37
2022-08-17T19:07:38.541Z,99192.81
2022-08-17T19:10:16.831Z,99195.25
2022-08-17T19:12:53.097Z,99192.81
2022-08-17T19:15:34.584Z,99196.91
2022-08-17T19:18:12.083Z,99200.19
2022-08-17T19:20:45.378Z,99199.22
2022-08-17T19:23:16.769Z,99190.59
2022-08-17T19:25:50.043Z,99194.34
2022-08-17T19:28:33.142Z,99201.19
2022-08-17T19:31:04.534Z,99204.47
2022-08-17T19:33:32.179Z,99206.97
2022-08-17T19:36:32.851Z,99213.81
2022-08-17T19:39:06.300Z,99207.16
2022-08-17T19:41:50.608Z,99205.03
2022-08-17T19:44:41.306Z,99204.12
2022-08-17T19:47:54.928Z,99197.47
2022-08-17T19:50:41.520Z,99209.50
2022-08-17T19:53:18.496Z,99203.03
2022-08-17T19:56:00.910Z,99205.41
2022-08-17T19:58:37.333Z,99203.84
2022-08-17T20:01:05.813Z,99205.06
2022-08-17T20:03:37.818Z,99207.41
2022-08-17T20:06:13.175Z,99201.13
2022-08-17T20:08:57.047Z,99202.22
2022-08-17T20:11:30.296Z,99207.81
2022-08-17T20:14:05.136Z,99202.53
2022-08-17T20:16:33.532Z,99198.69
2022-08-17T20:19:08.228Z,99198.78
2022-08-17T20:21:58.812Z,99199.94
2022-08-17T20:24:37.769Z,99207.16
2022-08-17T20:27:12.507Z,99202.50
2022-08-17T20:30:10.419Z,99199.00
2022-08-17T20:32:51.917Z,99195.28
2022-08-17T20:35:25.573Z,99197.69
2022-08-17T20:38:01.458Z,99190.06
2022-08-17T20:40:53.690Z,99201.59
2022-08-17T20:43:33.552Z,99193.84
2022-08-17T20:46:38.116Z,99194.22
2022-08-17T20:49:11.140Z,99192.03
2022-08-17T20:52:00.589Z,99185.16
2022-08-17T20:54:57.544Z,99185.97
2022-08-17T20:57:31.233Z,99177.31
2022-08-17T21:00:15.991Z,99191.09
2022-08-17T21:02:45.870Z,99186.94
2022-08-17T21:05:59.901Z,99190.50
2022-08-17T21:08:30.573Z,99189.88
2022-08-17T21:10:58.176Z,99191.91
2022-08-17T21:13:30.054Z,99189.41
2022-08-17T21:16:38.839Z,99192.59
2022-08-17T21:19:31.419Z,99186.16
2022-08-17T21:22:11.196Z,99188.50
2022-08-17T21:24:52.899Z,99195.69
2022-08-17T21:27:27.456Z,99204.81
2022-08-17T21:30:10.097Z,99207.47
2022-08-17T21:32:39.677Z,99207.53
2022-08-17T21:35:21.610Z,99207.00
2022-08-17T21:37:50.430Z,99214.91
2022-08-17T21:40:26.583Z,99211.06
2022-08-17T21:42:58.059Z,99212.88
2022-08-17T21:45:36.604Z,99206.38
2022-08-17T21:48:22.721Z,99209.81
2022-08-17T21:51:12.772Z,99207.91
2022-08-17T21:53:48.260Z,99205.88
2022-08-17T21:56:41.864Z,99215.72
2022-08-17T21:59:20.008Z,99218.84
2022-08-17T22:01:55.853Z,99224.31
2022-08-17T22:04:34.081Z,99237.00
2022-08-17T22:07:03.450Z,99225.00
2022-08-17T22:09:32.169Z,99227.53
2022-08-17T22:12:06.758Z,99236.91
2022-08-17T22:14:52.506Z,99241.59
2022-08-17T22:17:28.557Z,99244.66
2022-08-17T22:19:57.954Z,99249.62
2022-08-17T22:22:27.025Z,99246.34
2022-08-17T22:24:58.173Z,99253.19
2022-08-17T22:28:05.390Z,99244.03
2022-08-17T22:30:36.614Z,99251.44
2022-08-17T22:33:42.047Z,99249.81
2022-08-17T22:36:12.133Z,99253.41
2022-08-17T22:38:41.402Z,99253.06
2022-08-17T22:41:26.238Z,99255.34
2022-08-17T22:43:53.892Z,99251.28
2022-08-17T22:46:21.334Z,99257.62
2022-08-17T22:48:52.806Z,99259.13
2022-08-17T22:51:22.237Z,99259.47
2022-08-17T22:54:19.993Z,99264.59
2022-08-17T22:57:18.724Z,99266.16
2022-08-17T22:59:47.613Z,99273.75
2022-08-17T23:02:21.092Z,99276.75
2022-08-17T23:04:51.481Z,99276.78
2022-08-17T23:07:20.244Z,99282.25
2022-08-17T23:09:47.606Z,99282.69
2022-08-17T23:12:17.798Z,99277.84
2022-08-17T23:14:51.315Z,99279.50
2022-08-17T23:17:18.693Z,99280.47
2022-08-17T23:19:46.336Z,99284.56
2022-08-17T23:22:13.712Z,99286.31
2022-08-17T23:24:44.533Z,99289.38
2022-08-17T23:27:12.322Z,99283.34
2022-08-17T23:29:41.378Z,99301.63
2022-08-17T23:32:11.164Z,99311.38
2022-08-17T23:34:39.234Z,99300.22
2022-08-17T23:37:06.974Z,99292.41
2022-08-17T23:39:34.728Z,99292.69
2022-08-17T23:42:05.189Z,99284.81
2022-08-17T23:44:33.716Z,99280.44
2022-08-17T23:47:03.586Z,99277.87
2022-08-17T23:49:31.392Z,99278.78
2022-08-17T23:51:59.671Z,99272.34
2022-08-17T23:54:35.304Z,99280.53
2022-08-17T23:57:04.149Z,99266.53
2022-08-17T23:59:33.806Z,99267.91
